Portada
METAR-TAF:

METAR-TAF

Aeroports :

Berlin, Nova Hampshire, Estats Units d'Amèrica

latitud: 44-34-34N, longitud: 071-10-43W, altitud: 353 m

Observació

L'informe es va fer fa 19 minuts, a les 10:52 UTC
Vent calma
Temperatura 16°C
Humitat 88%
Pressió 1013 hPa
Visibilitat: 16.1 km
Cel ennuvolat a una alçada de 2700 ft

METAR: KBML 191052Z AUTO 00000KT 10SM BKN027 16/14 A2990 RMK AO2 SLP122 T01560139

Hora: 07:11 (11:11 UTC)


TAF: manca

Observacions i pronòstics meteorològics de més de 4000 aeroports (METAR i TAF).

Les estacions disponibles són els punts grocs i vermells al mapa.

Posi el ratolí al punt desitjat per veure el nom de l'estació.

Feu clic per veure les observacions i els pronòstics meteorològics.

Per canviar el mapa: feu clic els botons verds amb una creu de color negre per apropar; al botó verd amb un guió per allunyar la imatge; o en les fletxes verdes per a mapes adjacents.


METAR-TAF: